Time;durP1;ratioP1;P1;durP2;ratioP2;P2;SDS_P1;SDS_P2;PMS_P1;PMS_P2;Temp;Humidity;BMP_temperature;BMP_pressure;BME280_temperature;BME280_humidity;BME280_pressure;Samples;Min_cycle;Max_cycle;Signal;HPM_P1;HPM_P2
2021/10/04 00:00:56;;;;;;;;;;;;;;;;;;5113032;28;19931;-73
2021/10/04 00:03:22;;;;;;;;;;;;;;;;;;5113208;28;19927;-72
2021/10/04 00:05:48;;;;;;;;;;;;;;;;;;5113310;28;20285;-72
2021/10/04 00:08:15;;;;;;;;;;;;;;;;;;5113233;28;19924;-72
2021/10/04 00:10:41;;;;;;;;;;;;;;;;;;5113512;28;19924;-72
2021/10/04 00:13:07;;;;;;;;;;;;;;;;;;5113115;28;19923;-72
2021/10/04 00:15:34;;;;;;;;;;;;;;;;;;5113239;28;19923;-72
2021/10/04 00:18:00;;;;;;;;;;;;;;;;;;5113299;28;19924;-72
2021/10/04 00:20:26;;;;;;;;;;;;;;;;;;5113118;28;19959;-71
2021/10/04 00:22:53;;;;;;;;;;;;;;;;;;5112795;28;20297;-72
2021/10/04 00:25:19;;;;;;;;;;;;;;;;;;5113033;28;19924;-72
2021/10/04 00:27:45;;;;;;;;;;;;;;;;;;5113143;28;19924;-71
2021/10/04 00:30:11;;;;;;;;;;;;;;;;;;5112788;28;19931;-72
2021/10/04 00:32:39;;;;;;;;;;;;;;;;;;5113225;28;19931;-71
2021/10/04 00:35:05;;;;;;;;;;;;;;;;;;5112703;28;19931;-71
2021/10/04 00:37:32;;;;;;;;;;;;;;;;;;5113125;28;19969;-72
2021/10/04 00:39:58;;;;;;;;;;;;;;;;;;5112496;28;19930;-71
2021/10/04 00:42:24;;;;;;;;;;;;;;;;;;5113269;28;19924;-72
2021/10/04 00:44:50;;;;;;;;;;;;;;;;;;5112713;28;19931;-71
2021/10/04 00:47:17;;;;;;;;;;;;;;;;;;5113090;28;19924;-72
2021/10/04 00:49:43;;;;;;;;;;;;;;;;;;5112849;28;20326;-71
2021/10/04 00:52:09;;;;;;;;;;;;;;;;;;5112515;28;19924;-72
2021/10/04 00:54:36;;;;;;;;;;;;;;;;;;5112810;28;19924;-72
2021/10/04 00:57:02;;;;;;;;;;;;;;;;;;5112494;28;20412;-72
2021/10/04 00:59:28;;;;;;;;;;;;;;;;;;5112622;28;19931;-71
2021/10/04 01:01:54;;;;;;;;;;;;;;;;;;5112594;28;19924;-71
2021/10/04 01:04:25;;;;;;;;;;;;;;;;;;5112702;28;19930;-71
2021/10/04 01:06:52;;;;;;;;;;;;;;;;;;5112754;28;19931;-72
2021/10/04 01:09:18;;;;;;;;;;;;;;;;;;5112807;28;20313;-72
2021/10/04 01:11:44;;;;;;;;;;;;;;;;;;5112641;28;19924;-72
2021/10/04 01:14:11;;;;;;;;;;;;;;;;;;5112672;28;19934;-72
2021/10/04 01:16:37;;;;;;;;;;;;;;;;;;5112531;28;20297;-72
2021/10/04 01:19:03;;;;;;;;;;;;;;;;;;5114926;28;19934;-71
2021/10/04 01:21:29;;;;;;;;;;;;;;;;;;5116672;28;19972;-71
2021/10/04 01:23:56;;;;;;;;;;;;;;;;;;5116195;28;20282;-72
2021/10/04 01:26:24;;;;;;;;;;;;;;;;;;5116469;28;19924;-72
2021/10/04 01:28:50;;;;;;;;;;;;;;;;;;5116370;28;19970;-71
2021/10/04 01:31:21;;;;;;;;;;;;;;;;;;5116603;28;19930;-72
2021/10/04 01:33:47;;;;;;;;;;;;;;;;;;5116169;28;20383;-71
2021/10/04 01:36:14;;;;;;;;;;;;;;;;;;5115980;28;19928;-72
2021/10/04 01:38:40;;;;;;;;;;;;;;;;;;5116440;28;19924;-72
2021/10/04 01:41:06;;;;;;;;;;;;;;;;;;5115799;28;20374;-72
2021/10/04 01:43:33;;;;;;;;;;;;;;;;;;5116472;28;19924;-72
2021/10/04 01:45:59;;;;;;;;;;;;;;;;;;5116184;28;19924;-72
2021/10/04 01:48:25;;;;;;;;;;;;;;;;;;5116357;28;19923;-72
2021/10/04 01:50:51;;;;;;;;;;;;;;;;;;5115782;28;19924;-71
2021/10/04 01:53:18;;;;;;;;;;;;;;;;;;5116464;28;19938;-71
2021/10/04 01:55:44;;;;;;;;;;;;;;;;;;5115966;28;19928;-71
2021/10/04 01:58:10;;;;;;;;;;;;;;;;;;5131899;28;19928;-71
2021/10/04 02:00:37;;;;;;;;;;;;;;;;;;5136507;28;19923;-71
2021/10/04 02:03:03;;;;;;;;;;;;;;;;;;5129650;28;19924;-71
2021/10/04 02:05:29;;;;;;;;;;;;;;;;;;5116007;28;19930;-71
2021/10/04 02:07:55;;;;;;;;;;;;;;;;;;5115776;28;19931;-71
2021/10/04 02:10:22;;;;;;;;;;;;;;;;;;5115937;28;19931;-71
2021/10/04 02:12:48;;;;;;;;;;;;;;;;;;5115530;28;20388;-70
2021/10/04 02:15:14;;;;;;;;;;;;;;;;;;5115139;28;19935;-71
2021/10/04 02:17:41;;;;;;;;;;;;;;;;;;5115768;28;19931;-71
2021/10/04 02:20:07;;;;;;;;;;;;;;;;;;5114906;28;20366;-71
2021/10/04 02:22:33;;;;;;;;;;;;;;;;;;5115347;28;19924;-71
2021/10/04 02:25:00;;;;;;;;;;;;;;;;;;5115320;28;19924;-71
2021/10/04 02:27:26;;;;;;;;;;;;;;;;;;5115412;28;19924;-71
2021/10/04 02:29:52;;;;;;;;;;;;;;;;;;5113962;28;19935;-71
2021/10/04 02:32:18;;;;;;;;;;;;;;;;;;5115495;28;19924;-71
2021/10/04 02:34:45;;;;;;;;;;;;;;;;;;5114902;28;19928;-71
2021/10/04 02:37:11;;;;;;;;;;;;;;;;;;5115042;28;19928;-71
2021/10/04 02:39:37;;;;;;;;;;;;;;;;;;5114861;28;20374;-71
2021/10/04 02:42:04;;;;;;;;;;;;;;;;;;5114521;28;20305;-71
2021/10/04 02:44:30;;;;;;;;;;;;;;;;;;5114812;28;19924;-71
2021/10/04 02:46:56;;;;;;;;;;;;;;;;;;5114881;28;19924;-72
2021/10/04 02:49:22;;;;;;;;;;;;;;;;;;5114629;28;19931;-71
2021/10/04 02:51:49;;;;;;;;;;;;;;;;;;5115012;28;19923;-72
2021/10/04 02:54:15;;;;;;;;;;;;;;;;;;5114524;28;19924;-71
2021/10/04 02:56:41;;;;;;;;;;;;;;;;;;5114666;28;20370;-71
2021/10/04 02:59:11;;;;;;;;;;;;;;;;;;5114508;28;19923;-72
2021/10/04 03:01:37;;;;;;;;;;;;;;;;;;5114525;28;19924;-71
2021/10/04 03:04:03;;;;;;;;;;;;;;;;;;5114572;28;19938;-71
2021/10/04 03:06:29;;;;;;;;;;;;;;;;;;5114303;28;19924;-72
2021/10/04 03:08:56;;;;;;;;;;;;;;;;;;5114147;28;19924;-71
2021/10/04 03:11:22;;;;;;;;;;;;;;;;;;5114528;28;19923;-71
2021/10/04 03:13:48;;;;;;;;;;;;;;;;;;5114408;28;20403;-72
2021/10/04 03:16:15;;;;;;;;;;;;;;;;;;5114290;28;19928;-72
2021/10/04 03:18:41;;;;;;;;;;;;;;;;;;5114370;28;20293;-71
2021/10/04 03:21:07;;;;;;;;;;;;;;;;;;5113939;28;19923;-72
2021/10/04 03:23:34;;;;;;;;;;;;;;;;;;5114356;28;19923;-71
2021/10/04 03:26:00;;;;;;;;;;;;;;;;;;5113762;28;20404;-71
2021/10/04 03:28:26;;;;;;;;;;;;;;;;;;5114184;28;19924;-71
2021/10/04 03:30:52;;;;;;;;;;;;;;;;;;5113902;28;19927;-72
2021/10/04 03:33:19;;;;;;;;;;;;;;;;;;5113855;28;19931;-72
2021/10/04 03:35:45;;;;;;;;;;;;;;;;;;5113915;28;19935;-71
2021/10/04 03:38:11;;;;;;;;;;;;;;;;;;5113850;28;19923;-72
2021/10/04 03:40:38;;;;;;;;;;;;;;;;;;5113464;28;20424;-71
2021/10/04 03:43:04;;;;;;;;;;;;;;;;;;5113840;28;19924;-72
2021/10/04 03:45:30;;;;;;;;;;;;;;;;;;5114023;28;19923;-72
2021/10/04 03:47:56;;;;;;;;;;;;;;;;;;5113687;28;19937;-71
2021/10/04 03:50:23;;;;;;;;;;;;;;;;;;5113801;28;19931;-72
2021/10/04 03:52:49;;;;;;;;;;;;;;;;;;5113860;28;19923;-72
2021/10/04 03:55:15;;;;;;;;;;;;;;;;;;5113241;28;19928;-72
2021/10/04 03:57:42;;;;;;;;;;;;;;;;;;5113858;28;19924;-72
2021/10/04 04:00:08;;;;;;;;;;;;;;;;;;5113268;28;19924;-71
2021/10/04 04:02:34;;;;;;;;;;;;;;;;;;5113516;28;20393;-71
2021/10/04 04:05:01;;;;;;;;;;;;;;;;;;5113013;28;19931;-72
2021/10/04 04:07:27;;;;;;;;;;;;;;;;;;5113730;28;19923;-72
2021/10/04 04:09:53;;;;;;;;;;;;;;;;;;5113016;28;19924;-72
2021/10/04 04:12:20;;;;;;;;;;;;;;;;;;5113501;28;19930;-72
2021/10/04 04:14:46;;;;;;;;;;;;;;;;;;5113236;28;20382;-72
2021/10/04 04:17:12;;;;;;;;;;;;;;;;;;5113008;28;19923;-71
2021/10/04 04:19:39;;;;;;;;;;;;;;;;;;5113025;28;20270;-73
2021/10/04 04:22:05;;;;;;;;;;;;;;;;;;5112967;28;19930;-77
2021/10/04 04:24:31;;;;;;;;;;;;;;;;;;5113433;28;19924;-76
2021/10/04 04:26:57;;;;;;;;;;;;;;;;;;5112967;28;19924;-72
2021/10/04 04:29:24;;;;;;;;;;;;;;;;;;5112870;28;19924;-75
2021/10/04 04:31:50;;;;;;;;;;;;;;;;;;5113114;28;19924;-74
2021/10/04 04:34:17;;;;;;;;;;;;;;;;;;5112994;28;20293;-74
2021/10/04 04:36:43;;;;;;;;;;;;;;;;;;5112938;28;19923;-75
2021/10/04 04:39:09;;;;;;;;;;;;;;;;;;5112879;28;19931;-75
2021/10/04 04:41:35;;;;;;;;;;;;;;;;;;5113116;28;19955;-74
2021/10/04 04:44:02;;;;;;;;;;;;;;;;;;5112540;28;19924;-78
2021/10/04 04:46:28;;;;;;;;;;;;;;;;;;5113147;28;19923;-78
2021/10/04 04:48:54;;;;;;;;;;;;;;;;;;5112579;28;19928;-78
2021/10/04 04:51:21;;;;;;;;;;;;;;;;;;5113248;28;19924;-78
2021/10/04 04:53:47;;;;;;;;;;;;;;;;;;5115542;28;19927;-69
2021/10/04 04:56:15;;;;;;;;;;;;;;;;;;5116598;28;19931;-69
2021/10/04 04:58:41;;;;;;;;;;;;;;;;;;5117159;28;19931;-69
2021/10/04 05:01:07;;;;;;;;;;;;;;;;;;5116418;28;19924;-70
2021/10/04 05:03:34;;;;;;;;;;;;;;;;;;5116749;28;19924;-69
2021/10/04 05:06:00;;;;;;;;;;;;;;;;;;5116845;28;19923;-69
2021/10/04 05:08:26;;;;;;;;;;;;;;;;;;5116678;28;19934;-69
2021/10/04 05:10:52;;;;;;;;;;;;;;;;;;5116788;28;20016;-69
2021/10/04 05:13:19;;;;;;;;;;;;;;;;;;5116662;28;20293;-69
2021/10/04 05:15:45;;;;;;;;;;;;;;;;;;5116503;28;19930;-69
2021/10/04 05:18:11;;;;;;;;;;;;;;;;;;5116607;28;19924;-69
2021/10/04 05:20:38;;;;;;;;;;;;;;;;;;5116525;28;19923;-69
2021/10/04 05:23:04;;;;;;;;;;;;;;;;;;5116139;28;19928;-70
2021/10/04 05:25:30;;;;;;;;;;;;;;;;;;5116702;28;19924;-69
2021/10/04 05:27:56;;;;;;;;;;;;;;;;;;5116040;28;19928;-69
2021/10/04 05:30:23;;;;;;;;;;;;;;;;;;5116271;28;19924;-70
2021/10/04 05:32:49;;;;;;;;;;;;;;;;;;5116490;28;19954;-70
2021/10/04 05:35:16;;;;;;;;;;;;;;;;;;5116299;28;19930;-69
2021/10/04 05:37:42;;;;;;;;;;;;;;;;;;5116341;28;19923;-69
2021/10/04 05:40:08;;;;;;;;;;;;;;;;;;5115715;28;19924;-70
2021/10/04 05:42:34;;;;;;;;;;;;;;;;;;5116268;28;19931;-70
2021/10/04 05:45:01;;;;;;;;;;;;;;;;;;5116010;28;19923;-69
2021/10/04 05:47:27;;;;;;;;;;;;;;;;;;5115869;28;19927;-69
2021/10/04 05:49:53;;;;;;;;;;;;;;;;;;5115806;28;19923;-69
2021/10/04 05:52:20;;;;;;;;;;;;;;;;;;5115897;28;20421;-69
2021/10/04 05:54:46;;;;;;;;;;;;;;;;;;5115767;28;19923;-70
2021/10/04 05:57:12;;;;;;;;;;;;;;;;;;5115805;28;19924;-69
2021/10/04 05:59:38;;;;;;;;;;;;;;;;;;5115941;28;20362;-68
2021/10/04 06:02:05;;;;;;;;;;;;;;;;;;5115283;28;19931;-68
2021/10/04 06:04:31;;;;;;;;;;;;;;;;;;5115465;28;19930;-68
2021/10/04 06:06:57;;;;;;;;;;;;;;;;;;5115247;28;19928;-68
2021/10/04 06:09:24;;;;;;;;;;;;;;;;;;5119220;28;19923;-68
2021/10/04 06:11:50;;;;;;;;;;;;;;;;;;5120829;28;20290;-69
2021/10/04 06:14:16;;;;;;;;;;;;;;;;;;5121351;28;19924;-69
2021/10/04 06:16:43;;;;;;;;;;;;;;;;;;5115859;28;19923;-69
2021/10/04 06:19:09;;;;;;;;;;;;;;;;;;5115033;28;20393;-69
2021/10/04 06:21:35;;;;;;;;;;;;;;;;;;5115218;28;19931;-69
2021/10/04 06:24:01;;;;;;;;;;;;;;;;;;5115317;28;19946;-69
2021/10/04 06:26:28;;;;;;;;;;;;;;;;;;5115172;28;19935;-68
2021/10/04 06:28:54;;;;;;;;;;;;;;;;;;5115125;28;19923;-70
2021/10/04 06:31:20;;;;;;;;;;;;;;;;;;5115014;28;20374;-70
2021/10/04 06:33:47;;;;;;;;;;;;;;;;;;5115092;28;19923;-70
2021/10/04 06:36:13;;;;;;;;;;;;;;;;;;5115006;28;19924;-70
2021/10/04 06:38:39;;;;;;;;;;;;;;;;;;5114866;28;20381;-70
2021/10/04 06:41:05;;;;;;;;;;;;;;;;;;5114526;28;19924;-70
2021/10/04 06:43:32;;;;;;;;;;;;;;;;;;5114924;28;19924;-70
2021/10/04 06:45:58;;;;;;;;;;;;;;;;;;5114925;28;20296;-70
2021/10/04 06:48:24;;;;;;;;;;;;;;;;;;5114783;28;19924;-70
2021/10/04 06:50:51;;;;;;;;;;;;;;;;;;5114845;28;19932;-70
2021/10/04 06:53:17;;;;;;;;;;;;;;;;;;5114756;28;20378;-70
2021/10/04 06:55:45;;;;;;;;;;;;;;;;;;5114770;28;19938;-70
2021/10/04 06:58:11;;;;;;;;;;;;;;;;;;5114501;28;19927;-68
2021/10/04 07:00:37;;;;;;;;;;;;;;;;;;5114882;28;19931;-70
2021/10/04 07:03:04;;;;;;;;;;;;;;;;;;5114258;28;20398;-68
2021/10/04 07:05:30;;;;;;;;;;;;;;;;;;5114359;28;19924;-69
2021/10/04 07:07:56;;;;;;;;;;;;;;;;;;5114448;28;19931;-71
2021/10/04 07:10:23;;;;;;;;;;;;;;;;;;5114417;28;19924;-70
2021/10/04 07:12:49;;;;;;;;;;;;;;;;;;5114560;28;19959;-70
2021/10/04 07:15:15;;;;;;;;;;;;;;;;;;5114237;28;19982;-70
2021/10/04 07:17:42;;;;;;;;;;;;;;;;;;5114344;28;19924;-71
2021/10/04 07:20:08;;;;;;;;;;;;;;;;;;5114145;28;19970;-70
2021/10/04 07:22:35;;;;;;;;;;;;;;;;;;5113948;28;19928;-70
2021/10/04 07:25:02;;;;;;;;;;;;;;;;;;5114125;28;19924;-71
2021/10/04 07:27:28;;;;;;;;;;;;;;;;;;5114043;28;19924;-70
2021/10/04 07:29:54;;;;;;;;;;;;;;;;;;5113964;28;19924;-70
2021/10/04 07:32:21;;;;;;;;;;;;;;;;;;5114197;28;20370;-70
2021/10/04 07:34:47;;;;;;;;;;;;;;;;;;5113852;28;19928;-69
2021/10/04 07:37:13;;;;;;;;;;;;;;;;;;5113874;28;19946;-70
2021/10/04 07:39:39;;;;;;;;;;;;;;;;;;5113772;28;19927;-70
2021/10/04 07:42:06;;;;;;;;;;;;;;;;;;5113733;28;19924;-70
2021/10/04 07:44:32;;;;;;;;;;;;;;;;;;5113560;28;20271;-70
2021/10/04 07:47:01;;;;;;;;;;;;;;;;;;5113632;28;19930;-69
2021/10/04 07:49:27;;;;;;;;;;;;;;;;;;5113932;28;19924;-69
2021/10/04 07:51:53;;;;;;;;;;;;;;;;;;5113463;28;20389;-69
2021/10/04 07:54:19;;;;;;;;;;;;;;;;;;5113388;28;19925;-69
2021/10/04 07:56:46;;;;;;;;;;;;;;;;;;5113734;28;19924;-69
2021/10/04 07:59:12;;;;;;;;;;;;;;;;;;5113266;28;19924;-69
2021/10/04 08:01:38;;;;;;;;;;;;;;;;;;5113628;28;19930;-69
2021/10/04 08:04:05;;;;;;;;;;;;;;;;;;5113671;28;20293;-69
2021/10/04 08:06:31;;;;;;;;;;;;;;;;;;5113399;28;19930;-69
2021/10/04 08:08:57;;;;;;;;;;;;;;;;;;5113390;28;19924;-69
2021/10/04 08:11:23;;;;;;;;;;;;;;;;;;5113332;28;20290;-69
2021/10/04 08:13:50;;;;;;;;;;;;;;;;;;5113096;28;19927;-69
2021/10/04 08:16:17;;;;;;;;;;;;;;;;;;5113462;28;19923;-69
2021/10/04 08:18:43;;;;;;;;;;;;;;;;;;5113487;28;19931;-69
2021/10/04 08:21:09;;;;;;;;;;;;;;;;;;5112736;28;20377;-69
2021/10/04 08:23:37;;;;;;;;;;;;;;;;;;5113373;28;19924;-69
2021/10/04 08:26:03;;;;;;;;;;;;;;;;;;5112848;28;19924;-69
2021/10/04 08:28:29;;;;;;;;;;;;;;;;;;5112284;28;19928;-69
2021/10/04 08:30:56;;;;;;;;;;;;;;;;;;5112731;28;20192;-69
2021/10/04 08:33:22;;;;;;;;;;;;;;;;;;5113230;28;19924;-69
2021/10/04 08:35:48;;;;;;;;;;;;;;;;;;5112843;28;19923;-69
2021/10/04 08:38:15;;;;;;;;;;;;;;;;;;5112660;28;19978;-69
2021/10/04 08:40:41;;;;;;;;;;;;;;;;;;5113147;28;19924;-69
2021/10/04 08:43:08;;;;;;;;;;;;;;;;;;5112723;28;19924;-69
2021/10/04 08:45:34;;;;;;;;;;;;;;;;;;5112953;28;19924;-69
2021/10/04 08:48:02;;;;;;;;;;;;;;;;;;5112477;28;19927;-69
2021/10/04 08:50:28;;;;;;;;;;;;;;;;;;5112721;28;19931;-69
2021/10/04 08:52:55;;;;;;;;;;;;;;;;;;5112882;28;19930;-69
2021/10/04 08:55:21;;;;;;;;;;;;;;;;;;5112543;28;19924;-69
2021/10/04 08:57:48;;;;;;;;;;;;;;;;;;5113154;28;19976;-69
2021/10/04 09:00:14;;;;;;;;;;;;;;;;;;5112407;28;20306;-69
2021/10/04 09:02:40;;;;;;;;;;;;;;;;;;5112418;28;19928;-69
2021/10/04 09:05:06;;;;;;;;;;;;;;;;;;5112705;28;19931;-69
2021/10/04 09:07:33;;;;;;;;;;;;;;;;;;5112962;28;20011;-69
2021/10/04 09:09:59;;;;;;;;;;;;;;;;;;5112211;28;19924;-70
2021/10/04 09:12:25;;;;;;;;;;;;;;;;;;5112896;28;19924;-70
2021/10/04 09:14:52;;;;;;;;;;;;;;;;;;5112402;28;20538;-69
2021/10/04 09:17:18;;;;;;;;;;;;;;;;;;5112479;28;20006;-69
2021/10/04 09:19:44;;;;;;;;;;;;;;;;;;5112619;28;19924;-69
2021/10/04 09:22:11;;;;;;;;;;;;;;;;;;5112149;28;20420;-70
2021/10/04 09:24:37;;;;;;;;;;;;;;;;;;5112457;28;19924;-70
2021/10/04 09:27:03;;;;;;;;;;;;;;;;;;5112282;28;19924;-70
2021/10/04 09:29:30;;;;;;;;;;;;;;;;;;5112553;28;20016;-69
2021/10/04 09:31:56;;;;;;;;;;;;;;;;;;5112646;28;19931;-69
2021/10/04 09:34:23;;;;;;;;;;;;;;;;;;5112404;28;19928;-69
2021/10/04 09:36:49;;;;;;;;;;;;;;;;;;5112766;28;19924;-69
2021/10/04 09:39:15;;;;;;;;;;;;;;;;;;5113594;28;19924;-69
2021/10/04 09:41:42;;;;;;;;;;;;;;;;;;5116083;28;19924;-69
2021/10/04 09:44:08;;;;;;;;;;;;;;;;;;5116138;28;19931;-69
2021/10/04 09:46:34;;;;;;;;;;;;;;;;;;5115787;28;20289;-69
2021/10/04 09:49:01;;;;;;;;;;;;;;;;;;5115734;28;19936;-69
2021/10/04 09:51:27;;;;;;;;;;;;;;;;;;5116104;28;20344;-69
2021/10/04 09:53:53;;;;;;;;;;;;;;;;;;5115459;28;19924;-68
2021/10/04 09:56:20;;;;;;;;;;;;;;;;;;5115816;28;19930;-69
2021/10/04 09:58:46;;;;;;;;;;;;;;;;;;5115872;28;19931;-69
2021/10/04 10:01:12;;;;;;;;;;;;;;;;;;5115367;28;20400;-69
2021/10/04 10:03:40;;;;;;;;;;;;;;;;;;5115986;28;19923;-69
2021/10/04 10:06:06;;;;;;;;;;;;;;;;;;5115257;28;19931;-69
2021/10/04 10:08:33;;;;;;;;;;;;;;;;;;5115877;28;19931;-69
2021/10/04 10:10:59;;;;;;;;;;;;;;;;;;5115663;28;19924;-69
2021/10/04 10:13:26;;;;;;;;;;;;;;;;;;5115425;28;19924;-69
2021/10/04 10:15:52;;;;;;;;;;;;;;;;;;5115138;28;20045;-69
2021/10/04 10:18:18;;;;;;;;;;;;;;;;;;5115719;28;19931;-69
2021/10/04 10:20:45;;;;;;;;;;;;;;;;;;5115412;28;20382;-70
2021/10/04 10:23:11;;;;;;;;;;;;;;;;;;5118719;28;19931;-69
2021/10/04 10:25:37;;;;;;;;;;;;;;;;;;5120833;28;19924;-69
2021/10/04 10:28:04;;;;;;;;;;;;;;;;;;5118112;28;19932;-70
2021/10/04 10:30:30;;;;;;;;;;;;;;;;;;5115572;28;19931;-69
2021/10/04 10:32:56;;;;;;;;;;;;;;;;;;5114946;28;20308;-70
2021/10/04 10:35:23;;;;;;;;;;;;;;;;;;5115156;28;19924;-69
2021/10/04 10:37:49;;;;;;;;;;;;;;;;;;5115416;28;19930;-69
2021/10/04 10:40:16;;;;;;;;;;;;;;;;;;5115195;28;20015;-69
2021/10/04 10:42:42;;;;;;;;;;;;;;;;;;5114948;28;19930;-69
2021/10/04 10:45:09;;;;;;;;;;;;;;;;;;5115051;28;19923;-69
2021/10/04 10:47:35;;;;;;;;;;;;;;;;;;5115044;28;19923;-69
2021/10/04 10:50:01;;;;;;;;;;;;;;;;;;5114356;28;19928;-70
2021/10/04 10:52:28;;;;;;;;;;;;;;;;;;5114410;28;19924;-69
2021/10/04 10:54:54;;;;;;;;;;;;;;;;;;5114584;28;19923;-69
2021/10/04 10:57:20;;;;;;;;;;;;;;;;;;5114828;28;20297;-69
2021/10/04 10:59:46;;;;;;;;;;;;;;;;;;5114816;28;19931;-70
2021/10/04 11:02:13;;;;;;;;;;;;;;;;;;5114746;28;19923;-70
2021/10/04 11:04:39;;;;;;;;;;;;;;;;;;5114515;28;19924;-69
2021/10/04 11:07:05;;;;;;;;;;;;;;;;;;5114588;28;19924;-70
2021/10/04 11:09:32;;;;;;;;;;;;;;;;;;5114317;28;20302;-70
2021/10/04 11:11:58;;;;;;;;;;;;;;;;;;5114056;28;19923;-70
2021/10/04 11:14:24;;;;;;;;;;;;;;;;;;5114576;28;20005;-70
2021/10/04 11:16:53;;;;;;;;;;;;;;;;;;5114224;28;19930;-70
2021/10/04 11:19:20;;;;;;;;;;;;;;;;;;5114369;28;19930;-70
2021/10/04 11:21:49;;;;;;;;;;;;;;;;;;5114430;28;19924;-69
2021/10/04 11:24:16;;;;;;;;;;;;;;;;;;5114306;28;19923;-70
2021/10/04 11:26:43;;;;;;;;;;;;;;;;;;5114393;28;20005;-69
2021/10/04 11:29:10;;;;;;;;;;;;;;;;;;5114003;28;19924;-69
2021/10/04 11:31:37;;;;;;;;;;;;;;;;;;5114163;28;19930;-70
2021/10/04 11:34:03;;;;;;;;;;;;;;;;;;5114004;28;19924;-69
2021/10/04 11:36:29;;;;;;;;;;;;;;;;;;5113910;28;19923;-70
2021/10/04 11:38:55;;;;;;;;;;;;;;;;;;5113892;28;19924;-70
2021/10/04 11:41:22;;;;;;;;;;;;;;;;;;5113741;28;20378;-70
2021/10/04 11:43:48;;;;;;;;;;;;;;;;;;5113905;28;19934;-69
2021/10/04 11:46:15;;;;;;;;;;;;;;;;;;5113758;28;19947;-70
2021/10/04 11:48:42;;;;;;;;;;;;;;;;;;5113663;28;20386;-70
2021/10/04 11:51:11;;;;;;;;;;;;;;;;;;5113323;28;19966;-68
2021/10/04 11:53:37;;;;;;;;;;;;;;;;;;5113684;28;19946;-68
2021/10/04 11:56:03;;;;;;;;;;;;;;;;;;5113154;28;19935;-69
2021/10/04 11:58:30;;;;;;;;;;;;;;;;;;5113700;28;19930;-69
2021/10/04 12:00:56;;;;;;;;;;;;;;;;;;5113371;28;19924;-69
2021/10/04 12:03:22;;;;;;;;;;;;;;;;;;5112887;28;19969;-68
2021/10/04 12:05:49;;;;;;;;;;;;;;;;;;5113633;28;19924;-69
2021/10/04 12:08:18;;;;;;;;;;;;;;;;;;5113216;28;19923;-69
2021/10/04 12:10:44;;;;;;;;;;;;;;;;;;5113616;28;19966;-68
2021/10/04 12:13:10;;;;;;;;;;;;;;;;;;5112952;28;19932;-70
2021/10/04 12:15:36;;;;;;;;;;;;;;;;;;5113307;28;19953;-68
2021/10/04 12:18:03;;;;;;;;;;;;;;;;;;5112772;28;20370;-70
2021/10/04 12:20:29;;;;;;;;;;;;;;;;;;5113103;28;19924;-69
2021/10/04 12:22:55;;;;;;;;;;;;;;;;;;5113093;28;19935;-69
2021/10/04 12:25:22;;;;;;;;;;;;;;;;;;5113019;28;20377;-69
2021/10/04 12:27:48;;;;;;;;;;;;;;;;;;5113011;28;19934;-69
2021/10/04 12:30:17;;;;;;;;;;;;;;;;;;5113076;28;19930;-69
2021/10/04 12:32:46;;;;;;;;;;;;;;;;;;5112901;28;20385;-69
2021/10/04 12:35:12;;;;;;;;;;;;;;;;;;5113000;28;20026;-69
2021/10/04 12:37:38;;;;;;;;;;;;;;;;;;5113192;28;20022;-69
2021/10/04 12:40:05;;;;;;;;;;;;;;;;;;5112916;28;19923;-69
2021/10/04 12:42:31;;;;;;;;;;;;;;;;;;5112750;28;20290;-69
2021/10/04 12:44:57;;;;;;;;;;;;;;;;;;5112653;28;19923;-69
2021/10/04 12:47:24;;;;;;;;;;;;;;;;;;5112826;28;19924;-70
2021/10/04 12:49:50;;;;;;;;;;;;;;;;;;5112834;28;19930;-69
2021/10/04 12:52:16;;;;;;;;;;;;;;;;;;5112886;28;19930;-70
2021/10/04 12:54:43;;;;;;;;;;;;;;;;;;5112691;28;20301;-69
2021/10/04 12:57:09;;;;;;;;;;;;;;;;;;5112488;28;20373;-69
2021/10/04 12:59:35;;;;;;;;;;;;;;;;;;5112710;28;19924;-70
2021/10/04 13:02:02;;;;;;;;;;;;;;;;;;5112504;28;19923;-70
2021/10/04 13:04:28;;;;;;;;;;;;;;;;;;5112629;28;19927;-70
2021/10/04 13:06:54;;;;;;;;;;;;;;;;;;5112387;28;19930;-69
2021/10/04 13:09:21;;;;;;;;;;;;;;;;;;5113105;28;19924;-70
2021/10/04 13:11:49;;;;;;;;;;;;;;;;;;5113141;28;19924;-70
2021/10/04 13:14:15;;;;;;;;;;;;;;;;;;5114097;28;20378;-70
2021/10/04 13:16:41;;;;;;;;;;;;;;;;;;5116467;28;19923;-70
2021/10/04 13:19:08;;;;;;;;;;;;;;;;;;5116729;28;19924;-68
2021/10/04 13:21:38;;;;;;;;;;;;;;;;;;5119589;28;20386;-70
2021/10/04 13:24:08;;;;;;;;;;;;;;;;;;5116080;28;20482;-69
2021/10/04 13:26:34;;;;;;;;;;;;;;;;;;5116323;28;19989;-69
2021/10/04 13:29:01;;;;;;;;;;;;;;;;;;5116485;28;19946;-70
2021/10/04 13:31:36;;;;;;;;;;;;;;;;;;5116422;28;19923;-69
2021/10/04 13:34:02;;;;;;;;;;;;;;;;;;5116121;28;20372;-68
2021/10/04 13:36:28;;;;;;;;;;;;;;;;;;5116357;28;19927;-70
2021/10/04 13:38:55;;;;;;;;;;;;;;;;;;5116141;28;19947;-70
2021/10/04 13:41:21;;;;;;;;;;;;;;;;;;5116164;28;19923;-69
2021/10/04 13:43:49;;;;;;;;;;;;;;;;;;5116113;28;19928;-68
2021/10/04 13:46:15;;;;;;;;;;;;;;;;;;5116035;28;20366;-69
2021/10/04 13:48:42;;;;;;;;;;;;;;;;;;5116009;28;20360;-68
2021/10/04 13:51:08;;;;;;;;;;;;;;;;;;5116257;28;19923;-69
2021/10/04 13:56:16;;;;;;;;;;;;;;;;;;5114367;28;19931;-69
2021/10/04 13:58:43;;;;;;;;;;;;;;;;;;5115764;28;20463;-69
2021/10/04 14:01:10;;;;;;;;;;;;;;;;;;5115350;28;19923;-69
2021/10/04 14:03:36;;;;;;;;;;;;;;;;;;5115966;28;20277;-70
2021/10/04 14:06:03;;;;;;;;;;;;;;;;;;5115296;28;19928;-69
2021/10/04 14:08:29;;;;;;;;;;;;;;;;;;5115994;28;19924;-69
2021/10/04 14:10:55;;;;;;;;;;;;;;;;;;5115265;28;20370;-69
2021/10/04 14:13:21;;;;;;;;;;;;;;;;;;5115748;28;19924;-69
2021/10/04 14:15:48;;;;;;;;;;;;;;;;;;5115710;28;19934;-70
2021/10/04 14:18:14;;;;;;;;;;;;;;;;;;5115385;28;20385;-70
2021/10/04 14:20:40;;;;;;;;;;;;;;;;;;5115611;28;19930;-69
2021/10/04 14:23:07;;;;;;;;;;;;;;;;;;5115010;28;20309;-69
2021/10/04 14:25:33;;;;;;;;;;;;;;;;;;5115082;28;19928;-69
2021/10/04 14:27:59;;;;;;;;;;;;;;;;;;5115311;28;19931;-69
2021/10/04 14:30:28;;;;;;;;;;;;;;;;;;5115372;28;19946;-69
2021/10/04 14:32:54;;;;;;;;;;;;;;;;;;5116083;28;19924;-69
2021/10/04 14:35:21;;;;;;;;;;;;;;;;;;5116581;28;19923;-69
2021/10/04 14:37:47;;;;;;;;;;;;;;;;;;5116327;28;19931;-69
2021/10/04 14:40:13;;;;;;;;;;;;;;;;;;5114843;28;19932;-69
2021/10/04 14:42:40;;;;;;;;;;;;;;;;;;5115156;28;19931;-69
2021/10/04 14:45:06;;;;;;;;;;;;;;;;;;5114965;28;20077;-69
2021/10/04 14:47:32;;;;;;;;;;;;;;;;;;5114780;28;19924;-70
2021/10/04 14:49:59;;;;;;;;;;;;;;;;;;5114839;28;19923;-69
2021/10/04 14:52:25;;;;;;;;;;;;;;;;;;5115054;28;19923;-69
2021/10/04 14:54:51;;;;;;;;;;;;;;;;;;5114288;28;19924;-69
2021/10/04 14:57:17;;;;;;;;;;;;;;;;;;5114667;28;19923;-69
2021/10/04 14:59:44;;;;;;;;;;;;;;;;;;5114889;28;19935;-69
2021/10/04 15:02:10;;;;;;;;;;;;;;;;;;5114468;28;20416;-69
2021/10/04 15:04:36;;;;;;;;;;;;;;;;;;5114460;28;19930;-69
2021/10/04 15:07:03;;;;;;;;;;;;;;;;;;5114223;28;19924;-69
2021/10/04 15:09:29;;;;;;;;;;;;;;;;;;5114425;28;20320;-69
2021/10/04 15:11:55;;;;;;;;;;;;;;;;;;5114120;28;19924;-69
2021/10/04 15:14:22;;;;;;;;;;;;;;;;;;5114633;28;19930;-69
2021/10/04 15:16:48;;;;;;;;;;;;;;;;;;5114494;28;20026;-70
2021/10/04 15:19:17;;;;;;;;;;;;;;;;;;5114299;28;19928;-70
2021/10/04 15:21:43;;;;;;;;;;;;;;;;;;5114661;28;19924;-69
2021/10/04 15:24:10;;;;;;;;;;;;;;;;;;5114166;28;19946;-69
2021/10/04 15:26:36;;;;;;;;;;;;;;;;;;5114000;28;19930;-69
2021/10/04 15:29:02;;;;;;;;;;;;;;;;;;5114220;28;19924;-69
2021/10/04 15:31:28;;;;;;;;;;;;;;;;;;5114149;28;19923;-69
2021/10/04 15:33:56;;;;;;;;;;;;;;;;;;5113689;28;20385;-69
2021/10/04 15:36:22;;;;;;;;;;;;;;;;;;5113742;28;19947;-69
2021/10/04 15:38:50;;;;;;;;;;;;;;;;;;5113637;28;19928;-69
2021/10/04 15:41:17;;;;;;;;;;;;;;;;;;5113826;28;19954;-69
2021/10/04 15:43:43;;;;;;;;;;;;;;;;;;5114004;28;19947;-69
2021/10/04 15:46:09;;;;;;;;;;;;;;;;;;5113535;28;20378;-68
2021/10/04 15:48:40;;;;;;;;;;;;;;;;;;5113914;28;19931;-69
2021/10/04 15:51:06;;;;;;;;;;;;;;;;;;5113299;28;20400;-69
2021/10/04 15:53:32;;;;;;;;;;;;;;;;;;5113515;28;19923;-69
2021/10/04 15:56:04;;;;;;;;;;;;;;;;;;5113283;28;19924;-69
2021/10/04 15:58:31;;;;;;;;;;;;;;;;;;5113475;28;20022;-69
2021/10/04 16:00:58;;;;;;;;;;;;;;;;;;5113126;28;19924;-68
2021/10/04 16:03:24;;;;;;;;;;;;;;;;;;5113299;28;20379;-69
2021/10/04 16:05:51;;;;;;;;;;;;;;;;;;5113258;28;19931;-69
2021/10/04 16:08:21;;;;;;;;;;;;;;;;;;5113177;28;19962;-69
2021/10/04 16:10:48;;;;;;;;;;;;;;;;;;5113254;28;19963;-68
2021/10/04 16:13:14;;;;;;;;;;;;;;;;;;5113250;28;19924;-69
2021/10/04 16:15:40;;;;;;;;;;;;;;;;;;5113187;28;19932;-68
2021/10/04 16:18:07;;;;;;;;;;;;;;;;;;5113131;28;19947;-69
2021/10/04 16:20:33;;;;;;;;;;;;;;;;;;5113066;28;20370;-69
2021/10/04 16:22:59;;;;;;;;;;;;;;;;;;5112728;28;19924;-69
2021/10/04 16:25:26;;;;;;;;;;;;;;;;;;5113251;28;19928;-69
2021/10/04 16:27:52;;;;;;;;;;;;;;;;;;5112867;28;20478;-69
2021/10/04 16:30:18;;;;;;;;;;;;;;;;;;5113028;28;19924;-67
2021/10/04 16:32:45;;;;;;;;;;;;;;;;;;5112907;28;20377;-68
2021/10/04 16:35:11;;;;;;;;;;;;;;;;;;5112525;28;19928;-68
2021/10/04 16:37:37;;;;;;;;;;;;;;;;;;5113090;28;20025;-68
2021/10/04 16:40:04;;;;;;;;;;;;;;;;;;5112720;28;19931;-72
2021/10/04 16:42:31;;;;;;;;;;;;;;;;;;5130840;28;20026;-70